Time;durP1;ratioP1;P1;durP2;ratioP2;P2;SDS_P1;SDS_P2;PMS_P1;PMS_P2;Temp;Humidity;BMP_temperature;BMP_pressure;BME280_temperature;BME280_humidity;BME280_pressure;Samples;Min_cycle;Max_cycle;Signal;HPM_P1;HPM_P2
2021/12/24 00:00:10;;;;;;;55.22;33.53;;;;;;;-1.28;100.00;97734.94;2063486;28;20254;-75
2021/12/24 00:01:14;;;;;;;53.78;33.47;;;;;;;-1.26;100.00;97748.53;2061757;28;20233;-73
2021/12/24 00:02:15;;;;;;;51.30;33.00;;;;;;;-1.27;100.00;97754.81;2061797;28;20232;-73
2021/12/24 00:03:17;;;;;;;51.47;34.07;;;;;;;-1.28;100.00;97750.63;2061782;28;20307;-74
2021/12/24 00:04:18;;;;;;;49.25;33.55;;;;;;;-1.30;100.00;97750.09;2061771;28;20291;-73
2021/12/24 00:05:20;;;;;;;48.30;31.30;;;;;;;-1.33;100.00;97747.97;2062567;28;20248;-74
2021/12/24 00:06:24;;;;;;;54.13;32.25;;;;;;;-1.35;100.00;97739.59;2062585;28;20228;-73
2021/12/24 00:07:27;;;;;;;52.83;33.55;;;;;;;-1.37;100.00;97733.03;2068793;28;20695;-73
2021/12/24 00:08:29;;;;;;;44.88;31.40;;;;;;;-1.42;100.00;97739.78;2070582;28;20239;-74
2021/12/24 00:09:33;;;;;;;48.03;32.70;;;;;;;-1.46;100.00;97732.72;2070670;28;20247;-72
2021/12/24 00:10:35;;;;;;;48.78;32.92;;;;;;;-1.48;100.00;97735.59;2070639;28;20246;-73
2021/12/24 00:11:37;;;;;;;43.75;31.33;;;;;;;-1.48;100.00;97729.53;2069857;28;20298;-73
2021/12/24 00:12:44;;;;;;;44.78;31.65;;;;;;;-1.48;100.00;97722.50;2069435;28;20608;-74
2021/12/24 00:13:48;;;;;;;49.17;32.70;;;;;;;-1.49;100.00;97722.72;2069615;28;20232;-73
2021/12/24 00:14:53;;;;;;;52.88;34.47;;;;;;;-1.51;100.00;97725.59;2069916;28;20227;-74
2021/12/24 00:16:04;;;;;;;50.35;33.42;;;;;;;-1.51;100.00;97722.19;2069427;28;20249;-73
2021/12/24 00:17:06;;;;;;;49.75;32.63;;;;;;;-1.50;100.00;97721.16;2070008;28;20232;-73
2021/12/24 00:18:14;;;;;;;47.72;32.58;;;;;;;-1.54;100.00;97718.28;2070147;28;20578;-76
2021/12/24 00:19:22;;;;;;;44.50;29.92;;;;;;;-1.55;100.00;97714.09;2086065;28;20214;-73
2021/12/24 00:21:06;;;;;;;47.45;31.13;;;;;;;-1.57;100.00;97721.38;2084193;28;20658;-73
2021/12/24 00:22:27;;;;;;;52.20;31.88;;;;;;;-1.60;100.00;97716.66;2069805;28;20711;-74
2021/12/24 00:35:35;;;;;;;39.20;29.05;;;;;;;-1.56;100.00;97703.88;2056286;28;20228;-73
2021/12/24 00:36:36;;;;;;;45.38;31.20;;;;;;;-1.55;100.00;97697.59;2053735;28;20225;-73
2021/12/24 00:37:40;;;;;;;50.27;30.97;;;;;;;-1.46;100.00;97701.31;2067507;28;20229;-73
2021/12/24 00:38:41;;;;;;;48.25;31.63;;;;;;;-1.50;100.00;97700.22;2070501;28;20736;-73
2021/12/24 00:39:50;;;;;;;43.37;31.20;;;;;;;-1.52;100.00;97704.94;2070520;28;20598;-73
2021/12/24 00:40:55;;;;;;;40.88;30.48;;;;;;;-1.54;100.00;97699.97;2069753;28;20281;-73
2021/12/24 00:41:56;;;;;;;45.03;30.60;;;;;;;-1.56;100.00;97702.03;2069777;28;20687;-73
2021/12/24 00:42:58;;;;;;;51.07;32.03;;;;;;;-1.56;100.00;97696.81;2077824;28;20372;-73
2021/12/24 00:43:59;;;;;;;43.13;31.30;;;;;;;-1.57;100.00;97699.66;2069484;28;20232;-73
2021/12/24 00:45:00;;;;;;;46.15;30.70;;;;;;;-1.59;100.00;97694.69;2069846;28;20314;-72
2021/12/24 00:46:02;;;;;;;48.08;30.83;;;;;;;-1.58;100.00;97687.63;2070477;28;20224;-73
2021/12/24 00:47:05;;;;;;;44.38;30.35;;;;;;;-1.55;100.00;97689.75;2070511;28;20231;-73
2021/12/24 00:48:16;;;;;;;44.70;31.05;;;;;;;-1.53;100.00;97690.28;2070684;28;20227;-73
2021/12/24 00:49:17;;;;;;;40.55;28.92;;;;;;;-1.53;100.00;97679.81;2071393;28;20241;-73
2021/12/24 00:50:23;;;;;;;43.67;31.00;;;;;;;-1.48;100.00;97670.19;2072117;28;20243;-72
2021/12/24 00:51:31;;;;;;;43.95;30.73;;;;;;;-1.43;100.00;97669.44;2070753;28;20224;-73
2021/12/24 00:52:46;;;;;;;49.97;29.73;;;;;;;-1.43;100.00;97667.59;2071346;28;20381;-73
2021/12/24 00:55:12;;;;;;;43.25;30.23;;;;;;;-1.50;100.00;97672.25;2033086;28;20230;-73
2021/12/24 00:56:16;;;;;;;40.58;30.27;;;;;;;-1.52;100.00;97660.47;2071261;28;20243;-72
2021/12/24 00:57:17;;;;;;;38.88;28.05;;;;;;;-1.49;100.00;97660.75;2071999;28;20224;-73
2021/12/24 00:58:20;;;;;;;44.08;29.73;;;;;;;-1.48;100.00;97661.53;2071042;28;20694;-73
2021/12/24 00:59:21;;;;;;;40.88;29.27;;;;;;;-1.51;100.00;97655.00;2063133;28;20239;-73
2021/12/24 01:00:26;;;;;;;36.20;27.90;;;;;;;-1.49;100.00;97660.75;2071266;28;20275;-73
2021/12/24 01:01:27;;;;;;;39.72;28.25;;;;;;;-1.48;100.00;97654.50;2070705;28;20232;-73
2021/12/24 01:02:29;;;;;;;37.23;28.30;;;;;;;-1.45;100.00;97648.75;2063100;28;20323;-73
2021/12/24 01:03:30;;;;;;;37.03;28.10;;;;;;;-1.46;100.00;97641.97;2078708;28;20450;-73
2021/12/24 01:04:31;;;;;;;37.78;29.05;;;;;;;-1.44;100.00;97646.94;2079300;28;20311;-73
2021/12/24 01:05:34;;;;;;;39.27;28.00;;;;;;;-1.44;100.00;97642.47;2062991;28;20692;-73
2021/12/24 01:06:35;;;;;;;42.40;29.00;;;;;;;-1.41;100.00;97641.19;2063089;28;20225;-73
2021/12/24 01:07:37;;;;;;;36.73;28.87;;;;;;;-1.34;100.00;97631.28;2079089;28;20355;-73
2021/12/24 01:08:40;;;;;;;39.70;28.52;;;;;;;-1.32;100.00;97639.66;2078698;28;20224;-73
2021/12/24 01:09:44;;;;;;;38.95;26.88;;;;;;;-1.31;100.00;97636.00;2063248;28;20250;-73
2021/12/24 01:10:48;;;;;;;34.60;27.42;;;;;;;-1.31;100.00;97629.97;2063081;28;20225;-74
2021/12/24 01:11:49;;;;;;;37.15;27.73;;;;;;;-1.27;100.00;97633.69;2079156;28;20539;-73
2021/12/24 01:12:51;;;;;;;36.43;27.63;;;;;;;-1.27;100.00;97637.09;2079355;28;20330;-73
2021/12/24 01:13:51;;;;;;;36.75;28.48;;;;;;;-1.29;100.00;97628.72;2070603;28;20238;-76
2021/12/24 01:14:56;;;;;;;36.17;28.83;;;;;;;-1.25;100.00;97640.22;2063150;28;20691;-73
2021/12/24 01:16:02;;;;;;;37.80;29.70;;;;;;;-1.27;100.00;97629.22;2063293;28;20240;-72
2021/12/24 01:17:11;;;;;;;34.05;27.90;;;;;;;-1.27;100.00;97631.84;2071116;28;20718;-72
2021/12/24 01:18:20;;;;;;;37.38;28.27;;;;;;;-1.25;100.00;97626.34;2063705;28;20233;-71
2021/12/24 01:19:24;;;;;;;36.58;29.48;;;;;;;-1.24;100.00;97631.34;2062987;28;20228;-72
2021/12/24 01:20:31;;;;;;;38.90;28.45;;;;;;;-1.23;100.00;97630.28;2066680;28;20225;-72
2021/12/24 01:21:54;;;;;;;38.17;28.42;;;;;;;-1.23;100.00;97629.50;2067057;28;20231;-72
2021/12/24 01:24:28;;;;;;;32.75;27.52;;;;;;;-1.20;100.00;97621.94;2066042;28;20659;-72
2021/12/24 01:25:35;;;;;;;36.13;27.70;;;;;;;-1.22;100.00;97613.53;2069450;28;20228;-72
2021/12/24 01:26:42;;;;;;;36.15;28.65;;;;;;;-1.20;100.00;97610.69;2079863;28;20227;-72
2021/12/24 01:28:01;;;;;;;33.60;27.50;;;;;;;-1.20;100.00;97616.72;2077591;28;20227;-72
2021/12/24 01:29:32;;;;;;;34.03;27.60;;;;;;;-1.12;100.00;97606.81;2065021;28;20238;-72
2021/12/24 01:38:38;;;;;;;34.90;27.15;;;;;;;-1.15;100.00;97593.16;2079444;28;20238;-72
2021/12/24 01:39:53;;;;;;;37.30;27.45;;;;;;;-1.17;100.00;97595.25;2075903;28;20227;-72
2021/12/24 01:41:07;;;;;;;36.70;27.95;;;;;;;-1.11;100.00;97592.66;2064349;28;20227;-72
2021/12/24 01:43:29;;;;;;;36.88;27.48;;;;;;;-1.04;100.00;97583.53;2070225;28;20228;-72
2021/12/24 01:44:32;;;;;;;39.08;29.40;;;;;;;-1.09;100.00;97580.13;2062794;28;20683;-72
2021/12/24 01:45:39;;;;;;;35.50;28.20;;;;;;;-1.12;100.00;97572.78;2063058;28;20258;-72
2021/12/24 01:46:41;;;;;;;34.28;27.38;;;;;;;-1.13;100.00;97579.81;2078997;28;20224;-72
2021/12/24 01:47:43;;;;;;;35.42;27.27;;;;;;;-1.15;100.00;97567.00;2078901;28;20701;-72
2021/12/24 01:48:44;;;;;;;39.85;28.45;;;;;;;-1.17;100.00;97569.09;2078802;28;20252;-71
2021/12/24 01:49:47;;;;;;;35.58;27.15;;;;;;;-1.07;100.00;97562.31;2078747;28;20250;-72
2021/12/24 01:50:51;;;;;;;37.47;28.23;;;;;;;-1.11;100.00;97567.28;2063052;28;20225;-72
2021/12/24 01:51:57;;;;;;;32.88;26.92;;;;;;;-1.15;100.00;97559.16;2062841;28;20229;-72
2021/12/24 01:52:59;;;;;;;39.10;27.90;;;;;;;-1.09;100.00;97572.25;2079285;28;20244;-72
2021/12/24 01:54:03;;;;;;;37.13;28.75;;;;;;;-1.12;100.00;97562.31;2078475;28;20226;-72
2021/12/24 01:55:09;;;;;;;39.08;28.17;;;;;;;-1.13;100.00;97556.28;2062542;28;20684;-72
2021/12/24 01:56:18;;;;;;;37.55;29.55;;;;;;;-1.15;100.00;97561.75;2062826;28;20236;-72
2021/12/24 01:57:22;;;;;;;35.28;29.33;;;;;;;-1.17;100.00;97548.16;2063558;28;20225;-74
2021/12/24 01:58:26;;;;;;;34.65;28.73;;;;;;;-1.16;100.00;97549.72;2062414;28;20308;-73
2021/12/24 01:59:27;;;;;;;36.97;28.95;;;;;;;-1.19;100.00;97550.25;2063012;28;20651;-72
2021/12/24 02:00:33;;;;;;;37.57;28.73;;;;;;;-1.20;100.00;97551.31;2062597;28;20319;-72
2021/12/24 02:01:33;;;;;;;38.22;28.15;;;;;;;-1.17;100.00;97556.00;2063168;28;20235;-72
2021/12/24 02:02:38;;;;;;;35.43;26.83;;;;;;;-1.08;100.00;97545.03;2062598;28;20252;-72
2021/12/24 02:03:39;;;;;;;35.60;26.65;;;;;;;-1.00;100.00;97558.41;2062665;28;20229;-72
2021/12/24 02:04:41;;;;;;;40.53;28.47;;;;;;;-1.03;100.00;97558.16;2058007;28;20233;-72
2021/12/24 02:05:42;;;;;;;36.58;27.35;;;;;;;-1.05;100.00;97555.78;2062649;28;20367;-72
2021/12/24 02:06:44;;;;;;;36.25;28.63;;;;;;;-1.05;100.00;97553.16;2078743;28;20571;-72
2021/12/24 02:07:45;;;;;;;34.00;27.77;;;;;;;-1.06;100.00;97553.41;2070580;28;20220;-72
2021/12/24 02:08:48;;;;;;;32.33;27.73;;;;;;;-1.09;100.00;97551.31;2062652;28;20275;-72
2021/12/24 02:09:49;;;;;;;39.95;29.63;;;;;;;-1.06;100.00;97542.94;2062563;28;20229;-72
2021/12/24 02:10:51;;;;;;;33.63;28.40;;;;;;;-1.08;100.00;97543.22;2062539;28;20761;-72
2021/12/24 02:11:57;;;;;;;37.83;29.17;;;;;;;-1.03;100.00;97542.44;2068459;28;20283;-72
2021/12/24 02:12:59;;;;;;;39.80;29.77;;;;;;;-1.06;100.00;97543.72;2078938;28;20698;-72
2021/12/24 02:14:07;;;;;;;34.65;27.27;;;;;;;-1.03;100.00;97540.63;2077926;28;20234;-72
2021/12/24 02:15:20;;;;;;;40.78;29.35;;;;;;;-0.99;100.00;97540.88;2078633;28;20223;-72
2021/12/24 02:16:37;;;;;;;40.72;30.00;;;;;;;-0.99;100.00;97530.41;2077035;28;20251;-72
2021/12/24 02:18:00;;;;;;;35.17;28.10;;;;;;;-1.02;100.00;97533.56;2063990;28;20633;-72
2021/12/24 02:28:41;;;;;;;37.05;29.02;;;;;;;-1.03;100.00;97508.44;2049464;28;20242;-72
2021/12/24 02:29:46;;;;;;;33.97;29.13;;;;;;;-1.08;100.00;97500.56;2042171;28;20575;-72
2021/12/24 02:30:48;;;;;;;37.17;28.88;;;;;;;-1.10;100.00;97515.72;2053742;28;20229;-72
2021/12/24 02:31:49;;;;;;;38.50;29.67;;;;;;;-1.13;100.00;97503.94;2054237;28;20759;-72
2021/12/24 02:32:51;;;;;;;33.03;27.77;;;;;;;-1.10;100.00;97508.66;2054351;28;20612;-72
2021/12/24 02:33:51;;;;;;;38.95;29.23;;;;;;;-1.14;100.00;97518.84;2064203;28;20232;-72
2021/12/24 02:34:53;;;;;;;35.03;28.07;;;;;;;-1.12;100.00;97517.84;2084410;28;20226;-73
2021/12/24 02:35:55;;;;;;;33.17;27.33;;;;;;;-1.16;100.00;97502.63;2086747;28;20222;-72
2021/12/24 02:36:59;;;;;;;34.10;27.50;;;;;;;-1.15;100.00;97512.03;2086766;28;20231;-72
2021/12/24 02:38:02;;;;;;;37.13;28.45;;;;;;;-1.11;100.00;97504.47;2077976;28;20219;-71
2021/12/24 02:39:04;;;;;;;37.80;29.50;;;;;;;-1.10;100.00;97500.03;2070378;28;20251;-72
2021/12/24 02:40:06;;;;;;;33.83;28.27;;;;;;;-1.07;100.00;97502.13;2070349;28;20224;-72
2021/12/24 02:41:10;;;;;;;34.45;28.05;;;;;;;-1.09;100.00;97502.38;2064606;28;20235;-73
2021/12/24 02:42:13;;;;;;;33.25;27.85;;;;;;;-1.07;100.00;97494.28;2062033;28;20236;-73
2021/12/24 02:43:20;;;;;;;32.45;27.92;;;;;;;-1.07;100.00;97502.13;2062242;28;20229;-72
2021/12/24 02:44:23;;;;;;;30.45;26.40;;;;;;;-1.09;100.00;97496.38;2061999;28;20232;-71
2021/12/24 02:45:27;;;;;;;34.40;28.58;;;;;;;-1.08;100.00;97497.94;2060654;28;20228;-72
2021/12/24 02:46:34;;;;;;;32.50;28.02;;;;;;;-1.05;100.00;97497.41;2070191;28;20244;-71
2021/12/24 02:47:42;;;;;;;33.03;28.00;;;;;;;-1.06;100.00;97496.63;2070321;28;20248;-72
2021/12/24 02:48:59;;;;;;;33.85;27.48;;;;;;;-1.05;100.00;97489.56;2062610;28;20228;-72
2021/12/24 02:54:01;;;;;;;36.22;29.63;;;;;;;-1.05;100.00;97477.25;2063207;28;20220;-72
2021/12/24 02:55:03;;;;;;;36.90;29.50;;;;;;;-0.99;100.00;97473.63;2070403;28;20760;-72
2021/12/24 02:56:05;;;;;;;39.40;31.33;;;;;;;-0.94;100.00;97480.69;2070146;28;20234;-72
2021/12/24 02:57:10;;;;;;;37.05;29.20;;;;;;;-0.95;100.00;97474.69;2061870;28;20231;-72
2021/12/24 02:58:12;;;;;;;43.20;29.15;;;;;;;-0.91;100.00;97473.09;2062319;28;20232;-72
2021/12/24 02:59:14;;;;;;;38.95;29.83;;;;;;;-0.94;100.00;97471.00;2062131;28;20227;-73
2021/12/24 03:00:19;;;;;;;39.08;30.23;;;;;;;-0.95;100.00;97473.91;2070460;28;20220;-73
2021/12/24 03:01:24;;;;;;;34.55;28.45;;;;;;;-0.93;100.00;97469.97;2070331;28;20224;-73
2021/12/24 03:02:26;;;;;;;37.53;30.45;;;;;;;-0.93;100.00;97474.41;2062209;28;20260;-73
2021/12/24 03:03:26;;;;;;;42.70;30.90;;;;;;;-0.90;100.00;97473.88;2062116;28;20246;-72
2021/12/24 03:04:31;;;;;;;36.70;29.17;;;;;;;-0.91;100.00;97472.31;2070175;28;20228;-73
2021/12/24 03:05:33;;;;;;;40.67;30.35;;;;;;;-0.93;100.00;97463.94;2069865;28;20293;-73
2021/12/24 03:06:38;;;;;;;37.53;30.97;;;;;;;-0.91;100.00;97467.06;2070253;28;20277;-73
2021/12/24 03:07:38;;;;;;;36.38;29.00;;;;;;;-0.94;100.00;97468.41;2069873;28;20291;-73
2021/12/24 03:08:40;;;;;;;40.60;30.70;;;;;;;-0.95;100.00;97466.81;2070149;28;20235;-73
2021/12/24 03:09:41;;;;;;;42.08;30.73;;;;;;;-0.94;100.00;97473.63;2070119;28;20224;-73
2021/12/24 03:10:45;;;;;;;42.75;31.73;;;;;;;-0.93;100.00;97459.50;2070575;28;20311;-73
2021/12/24 03:11:59;;;;;;;36.55;31.02;;;;;;;-0.90;100.00;97460.78;2070182;28;20578;-73
2021/12/24 03:12:59;;;;;;;36.22;29.52;;;;;;;-0.92;100.00;97455.81;2062918;28;20240;-73
2021/12/24 03:14:02;;;;;;;45.20;30.67;;;;;;;-0.87;100.00;97455.84;2078011;28;20219;-73
2021/12/24 03:15:05;;;;;;;35.92;29.92;;;;;;;-0.83;100.00;97465.78;2077940;28;20223;-73
2021/12/24 03:16:07;;;;;;;32.42;28.08;;;;;;;-0.80;100.00;97473.09;2062120;28;20236;-73
2021/12/24 03:17:12;;;;;;;34.90;28.80;;;;;;;-0.83;100.00;97463.16;2061660;28;20221;-73
2021/12/24 03:18:22;;;;;;;35.72;28.75;;;;;;;-0.86;100.00;97465.25;2062472;28;20646;-73
2021/12/24 03:19:27;;;;;;;32.55;28.92;;;;;;;-0.83;100.00;97469.19;2069943;28;20708;-74
2021/12/24 03:20:33;;;;;;;29.98;26.65;;;;;;;-0.81;100.00;97468.91;2070888;28;20704;-73
2021/12/24 03:21:46;;;;;;;32.22;26.88;;;;;;;-0.81;100.00;97463.69;2070250;28;20713;-73
2021/12/24 03:23:01;;;;;;;31.52;27.45;;;;;;;-0.83;100.00;97463.94;2062881;28;20232;-73
2021/12/24 03:25:24;;;;;;;32.13;26.92;;;;;;;-0.76;100.00;97455.84;2063819;28;20220;-75
2021/12/24 03:26:27;;;;;;;29.40;26.27;;;;;;;-0.79;100.00;97459.75;2062152;28;20287;-74
2021/12/24 03:27:30;;;;;;;34.25;25.85;;;;;;;-0.82;100.00;97460.28;2062394;28;20228;-74
2021/12/24 03:28:31;;;;;;;30.27;26.98;;;;;;;-0.81;100.00;97453.22;2062058;28;20347;-74
2021/12/24 03:29:34;;;;;;;29.40;26.17;;;;;;;-0.82;100.00;97444.56;2062096;28;20225;-74
2021/12/24 03:30:37;;;;;;;30.10;26.30;;;;;;;-0.81;100.00;97453.22;2062350;28;20228;-74
2021/12/24 03:31:39;;;;;;;29.08;26.08;;;;;;;-0.80;100.00;97446.91;2057471;28;20229;-74
2021/12/24 03:32:41;;;;;;;30.17;27.05;;;;;;;-0.81;100.00;97451.38;2053936;28;20237;-74
2021/12/24 03:33:42;;;;;;;29.83;26.60;;;;;;;-0.76;100.00;97458.44;2072169;28;20231;-75
2021/12/24 03:34:44;;;;;;;29.23;26.03;;;;;;;-0.77;100.00;97464.75;2070059;28;20224;-75
2021/12/24 03:35:45;;;;;;;32.83;26.40;;;;;;;-0.73;100.00;97457.91;2054020;28;20233;-75
2021/12/24 03:36:49;;;;;;;30.00;26.50;;;;;;;-0.78;100.00;97450.88;2053949;28;20252;-75
2021/12/24 03:37:54;;;;;;;28.63;25.55;;;;;;;-0.78;100.00;97448.25;2068357;28;20297;-75
2021/12/24 03:38:58;;;;;;;30.05;26.73;;;;;;;-0.76;100.00;97456.63;2069834;28;20228;-75
2021/12/24 03:40:01;;;;;;;29.67;26.58;;;;;;;-0.75;100.00;97450.34;2078549;28;20223;-75
2021/12/24 03:41:03;;;;;;;30.05;26.75;;;;;;;-0.78;100.00;97445.63;2077857;28;20219;-75
2021/12/24 03:42:04;;;;;;;33.20;26.42;;;;;;;-0.75;100.00;97452.16;2061843;28;20703;-75
2021/12/24 03:43:06;;;;;;;29.08;25.90;;;;;;;-0.75;100.00;97449.56;2061982;28;20221;-75
2021/12/24 03:44:10;;;;;;;29.00;25.83;;;;;;;-0.72;100.00;97449.00;2069682;28;20242;-76
2021/12/24 03:45:23;;;;;;;29.13;26.13;;;;;;;-0.75;100.00;97436.47;2069701;28;20220;-75
2021/12/24 03:46:34;;;;;;;29.27;26.23;;;;;;;-0.77;100.00;97441.97;2063055;28;20225;-75
2021/12/24 03:47:39;;;;;;;30.65;27.38;;;;;;;-0.79;100.00;97438.78;2069955;28;20278;-76
2021/12/24 03:48:48;;;;;;;29.58;26.50;;;;;;;-0.81;100.00;97438.28;2069629;28;20247;-77
2021/12/24 03:49:57;;;;;;;29.63;26.52;;;;;;;-0.73;100.00;97435.13;2069986;28;20617;-77
2021/12/24 03:51:07;;;;;;;30.23;26.60;;;;;;;-0.76;100.00;97438.28;2069513;28;20224;-77
2021/12/24 03:52:21;;;;;;;30.52;27.17;;;;;;;-0.78;100.00;97439.59;2062523;28;20224;-77
2021/12/24 03:54:58;;;;;;;31.23;27.08;;;;;;;-0.80;100.00;97434.63;2079253;28;20227;-77
2021/12/24 03:56:02;;;;;;;32.17;25.85;;;;;;;-0.57;100.00;97441.16;2075261;28;20223;-77
2021/12/24 03:57:05;;;;;;;30.00;25.83;;;;;;;-0.60;100.00;97436.47;2070043;28;20580;-78
2021/12/24 03:58:25;;;;;;;29.42;26.50;;;;;;;-0.69;100.00;97428.34;2069471;28;20665;-78
2021/12/24 04:00:08;;;;;;;33.08;25.35;;;;;;;-0.71;100.00;97419.94;2061249;28;20675;-78
2021/12/24 04:01:19;;;;;;;29.20;25.98;;;;;;;-0.72;100.00;97426.22;2061279;28;20224;-78
2021/12/24 04:02:39;;;;;;;31.85;26.85;;;;;;;-0.73;100.00;97427.28;2062555;28;20232;-78
2021/12/24 04:04:05;;;;;;;29.33;25.92;;;;;;;-0.76;100.00;97419.97;2062214;28;20228;-78
2021/12/24 04:05:25;;;;;;;30.48;27.10;;;;;;;-0.75;100.00;97421.53;2061751;28;20224;-77
2021/12/24 04:06:54;;;;;;;29.10;26.00;;;;;;;-0.75;100.00;97432.00;2061499;28;20228;-77
2021/12/24 04:08:23;;;;;;;29.58;26.63;;;;;;;-0.79;100.00;97427.53;2062053;28;20655;-77
2021/12/24 04:09:47;;;;;;;29.45;26.45;;;;;;;-0.81;100.00;97432.25;2069034;28;20227;-78
2021/12/24 04:11:15;;;;;;;30.15;26.95;;;;;;;-0.75;100.00;97428.59;2064817;28;20224;-77
2021/12/24 04:12:16;;;;;;;31.95;28.63;;;;;;;-0.71;100.00;97427.00;2061677;28;20224;-76
2021/12/24 04:13:19;;;;;;;29.75;26.60;;;;;;;-0.65;100.00;97426.75;2061597;28;20613;-77
2021/12/24 04:14:20;;;;;;;31.30;28.00;;;;;;;-0.68;100.00;97421.28;2061208;28;20220;-77
2021/12/24 04:15:22;;;;;;;31.07;27.70;;;;;;;-0.74;100.00;97415.25;2053389;28;20237;-78
2021/12/24 04:16:23;;;;;;;31.70;26.83;;;;;;;-0.68;100.00;97422.06;2061244;28;20240;-77
2021/12/24 04:17:37;;;;;;;32.22;27.05;;;;;;;-0.68;100.00;97426.50;2054851;28;20743;-77
2021/12/24 04:18:45;;;;;;;31.00;27.70;;;;;;;-0.68;100.00;97429.91;2063152;28;20232;-77
2021/12/24 04:25:07;;;;;;;30.30;26.98;;;;;;;-0.67;100.00;97415.78;2065329;28;20266;-76
2021/12/24 04:26:08;;;;;;;31.90;28.20;;;;;;;-0.70;100.00;97411.03;2069269;28;20294;-76
2021/12/24 04:27:09;;;;;;;30.87;27.70;;;;;;;-0.68;100.00;97405.56;2079552;28;20227;-76
2021/12/24 04:28:13;;;;;;;31.13;27.92;;;;;;;-0.70;100.00;97399.78;2079531;28;20219;-75
2021/12/24 04:29:14;;;;;;;30.73;27.27;;;;;;;-0.71;100.00;97404.22;2071504;28;20315;-75
2021/12/24 04:30:22;;;;;;;32.03;28.60;;;;;;;-0.71;100.00;97404.22;2071343;28;20223;-75
2021/12/24 04:31:31;;;;;;;32.25;28.70;;;;;;;-0.68;100.00;97406.34;2064063;28;20233;-75
2021/12/24 04:33:00;;;;;;;34.38;28.17;;;;;;;-0.74;100.00;97399.53;2064814;28;20224;-76
2021/12/24 04:34:03;;;;;;;33.38;29.80;;;;;;;-0.72;100.00;97402.66;2063292;28;20237;-75
2021/12/24 04:35:18;;;;;;;32.95;29.63;;;;;;;-0.72;100.00;97413.13;2071319;28;20228;-74
2021/12/24 04:36:39;;;;;;;31.50;28.35;;;;;;;-0.64;100.00;97415.22;2071745;28;20690;-74
2021/12/24 04:38:07;;;;;;;33.92;29.23;;;;;;;-0.61;100.00;97408.66;2063366;28;20235;-75
2021/12/24 04:39:38;;;;;;;31.30;28.00;;;;;;;-0.63;100.00;97418.63;2066016;28;20657;-74
2021/12/24 04:51:19;;;;;;;30.98;27.70;;;;;;;-0.60;100.00;97400.56;2064214;28;20235;-73
2021/12/24 04:52:48;;;;;;;33.13;28.27;;;;;;;-0.50;100.00;97402.38;2057263;28;20233;-73
2021/12/24 05:02:00;;;;;;;31.27;27.98;;;;;;;-0.48;100.00;97392.44;2063085;28;20232;-74
2021/12/24 05:03:05;;;;;;;29.98;26.88;;;;;;;-0.48;100.00;97399.50;2062750;28;20228;-73
2021/12/24 05:04:09;;;;;;;29.58;25.67;;;;;;;-0.44;100.00;97393.44;2055739;28;20229;-75
2021/12/24 05:05:20;;;;;;;30.50;26.80;;;;;;;-0.40;100.00;97393.72;2055265;28;20684;-74
2021/12/24 05:06:32;;;;;;;31.90;28.30;;;;;;;-0.36;100.00;97398.16;2064537;28;20287;-74
2021/12/24 05:08:01;;;;;;;30.20;27.00;;;;;;;-0.36;100.00;97389.50;2062990;28;20634;-74
2021/12/24 05:09:08;;;;;;;31.15;28.02;;;;;;;-0.36;100.00;97385.03;2069954;28;20231;-74
2021/12/24 05:10:15;;;;;;;31.00;27.35;;;;;;;-0.40;100.00;97381.41;2070753;28;20641;-74
2021/12/24 05:11:17;;;;;;;31.30;27.20;;;;;;;-0.31;100.00;97386.88;2063324;28;20683;-74
2021/12/24 05:12:17;;;;;;;30.63;27.45;;;;;;;-0.34;100.00;97382.97;2063107;28;20297;-74
2021/12/24 05:13:21;;;;;;;31.23;27.93;;;;;;;-0.37;100.00;97378.25;2063006;28;20271;-74
2021/12/24 05:14:41;;;;;;;32.63;28.35;;;;;;;-0.34;100.00;97387.44;2064182;28;20709;-74
2021/12/24 05:16:17;;;;;;;31.58;28.17;;;;;;;-0.37;100.00;97388.72;2063383;28;20631;-73
2021/12/24 05:17:44;;;;;;;34.45;29.20;;;;;;;-0.34;100.00;97393.44;2062418;28;20766;-73
2021/12/24 05:22:01;;;;;;;31.02;27.70;;;;;;;-0.20;100.00;97396.28;2062526;28;20223;-74
2021/12/24 05:23:06;;;;;;;31.20;27.83;;;;;;;-0.23;100.00;97382.94;2062851;28;20224;-74
2021/12/24 05:24:12;;;;;;;35.23;29.97;;;;;;;-0.25;100.00;97383.19;2056458;28;20236;-75
2021/12/24 05:25:14;;;;;;;39.78;30.35;;;;;;;-0.19;100.00;97381.34;2057144;28;20461;-74
2021/12/24 05:26:19;;;;;;;33.83;30.25;;;;;;;-0.24;100.00;97386.59;2054835;28;20313;-74
2021/12/24 05:27:19;;;;;;;36.10;30.70;;;;;;;-0.22;100.00;97382.66;2055348;28;20233;-73
2021/12/24 05:28:22;;;;;;;36.55;31.45;;;;;;;-0.21;100.00;97391.31;2063022;28;20719;-73
2021/12/24 05:29:24;;;;;;;34.95;30.80;;;;;;;-0.22;100.00;97394.97;2068835;28;20236;-73
2021/12/24 05:30:26;;;;;;;36.22;30.83;;;;;;;-0.24;100.00;97381.38;2063116;28;20402;-73
2021/12/24 05:31:27;;;;;;;35.70;31.35;;;;;;;-0.24;100.00;97384.78;2063139;28;20228;-73
2021/12/24 05:32:29;;;;;;;35.85;31.25;;;;;;;-0.23;100.00;97385.56;2062912;28;20228;-72
2021/12/24 05:33:30;;;;;;;39.35;31.20;;;;;;;-0.19;100.00;97379.50;2070437;28;20224;-73
2021/12/24 05:34:33;;;;;;;36.63;30.67;;;;;;;-0.21;100.00;97386.84;2070928;28;20314;-73
2021/12/24 05:35:34;;;;;;;34.08;30.38;;;;;;;-0.25;100.00;97385.03;2062902;28;20287;-73
2021/12/24 05:36:37;;;;;;;38.28;30.73;;;;;;;-0.27;100.00;97387.91;2062794;28;20233;-74
2021/12/24 05:37:38;;;;;;;33.88;30.05;;;;;;;-0.17;100.00;97377.41;2070581;28;20240;-74
2021/12/24 05:38:40;;;;;;;33.55;29.13;;;;;;;-0.19;100.00;97374.25;2087283;28;20316;-74
2021/12/24 05:39:42;;;;;;;32.53;28.98;;;;;;;-0.21;100.00;97376.38;2078921;28;20251;-74
2021/12/24 05:40:44;;;;;;;33.85;29.45;;;;;;;-0.26;100.00;97368.53;2078985;28;20597;-74
2021/12/24 05:41:48;;;;;;;34.50;29.30;;;;;;;-0.29;100.00;97367.22;2078882;28;20223;-74
2021/12/24 05:42:48;;;;;;;34.05;29.23;;;;;;;-0.25;100.00;97375.34;2079378;28;20222;-74
2021/12/24 05:43:51;;;;;;;31.63;28.23;;;;;;;-0.16;100.00;97378.19;2078820;28;20223;-74
2021/12/24 05:44:52;;;;;;;34.17;28.80;;;;;;;-0.16;100.00;97372.97;2070410;28;20708;-75
2021/12/24 05:46:14;;;;;;;31.25;27.67;;;;;;;-0.22;100.00;97366.94;2070465;28;20247;-75
2021/12/24 05:47:27;;;;;;;32.22;28.67;;;;;;;-0.24;100.00;97365.66;2070505;28;20242;-75
2021/12/24 05:48:32;;;;;;;32.08;28.63;;;;;;;-0.27;100.00;97369.56;2063095;28;20233;-75
2021/12/24 05:49:41;;;;;;;31.80;28.33;;;;;;;-0.19;100.00;97363.78;2063325;28;20255;-75
2021/12/24 05:51:01;;;;;;;31.63;28.35;;;;;;;-0.18;100.00;97369.78;2070590;28;20228;-75
2021/12/24 05:52:38;;;;;;;32.25;28.42;;;;;;;-0.16;100.00;97372.97;2061926;28;20229;-74
2021/12/24 05:53:44;;;;;;;32.50;28.95;;;;;;;-0.18;100.00;97369.78;2064427;28;20263;-74
2021/12/24 05:54:48;;;;;;;33.85;28.50;;;;;;;-0.22;100.00;97374.78;2054955;28;20339;-74
2021/12/24 05:55:55;;;;;;;31.90;28.48;;;;;;;-0.21;100.00;97371.13;2061128;28;20276;-75
2021/12/24 05:56:57;;;;;;;32.75;29.20;;;;;;;-0.23;100.00;97378.47;2062719;28;20766;-74
2021/12/24 05:57:58;;;;;;;32.45;28.90;;;;;;;-0.18;100.00;97377.66;2062462;28;20229;-75
2021/12/24 05:59:00;;;;;;;32.58;29.08;;;;;;;-0.21;100.00;97370.34;2070679;28;20716;-74
2021/12/24 06:00:05;;;;;;;32.08;28.75;;;;;;;-0.20;100.00;97377.94;2070860;28;20256;-74
2021/12/24 06:01:14;;;;;;;31.60;28.20;;;;;;;-0.17;100.00;97376.63;2070260;28;20306;-74
2021/12/24 06:02:21;;;;;;;31.35;27.90;;;;;;;-0.15;100.00;97369.28;2070971;28;20269;-74
2021/12/24 06:03:23;;;;;;;31.53;28.13;;;;;;;-0.18;100.00;97373.19;2070351;28;20232;-75
2021/12/24 06:04:24;;;;;;;34.47;29.30;;;;;;;-0.22;100.00;97374.78;2070514;28;20230;-74
2021/12/24 06:05:26;;;;;;;31.93;28.07;;;;;;;-0.23;100.00;97378.47;2062583;28;20231;-74
2021/12/24 06:06:27;;;;;;;30.92;27.52;;;;;;;-0.19;100.00;97379.50;2078993;28;20348;-74
2021/12/24 06:07:29;;;;;;;30.53;27.33;;;;;;;-0.22;100.00;97380.03;2079135;28;20231;-74
2021/12/24 06:08:29;;;;;;;33.03;27.80;;;;;;;-0.22;100.00;97382.66;2070642;28;20232;-73
2021/12/24 06:09:31;;;;;;;33.93;28.53;;;;;;;-0.20;100.00;97377.16;2070841;28;20232;-74